createdAt,value
2023-01-12T00:00:31.081Z,0.00
2023-01-12T00:01:30.923Z,0.00
2023-01-12T00:02:30.972Z,0.00
2023-01-12T00:03:30.890Z,0.00
2023-01-12T00:04:30.988Z,0.00
2023-01-12T00:05:30.867Z,0.00
2023-01-12T00:06:30.869Z,0.00
2023-01-12T00:07:30.846Z,0.00
2023-01-12T00:08:30.915Z,0.00
2023-01-12T00:09:30.825Z,0.00
2023-01-12T00:10:30.816Z,0.00
2023-01-12T00:11:30.818Z,0.00
2023-01-12T00:12:30.801Z,0.00
2023-01-12T00:13:30.799Z,0.00
2023-01-12T00:14:30.780Z,0.00
2023-01-12T00:15:30.761Z,0.00
2023-01-12T00:16:30.797Z,0.00
2023-01-12T00:17:30.742Z,0.00
2023-01-12T00:18:30.728Z,0.00
2023-01-12T00:19:30.716Z,0.00
2023-01-12T00:20:30.711Z,0.00
2023-01-12T00:21:30.711Z,0.00
2023-01-12T00:22:30.693Z,0.00
2023-01-12T00:23:30.673Z,0.00
2023-01-12T00:24:30.663Z,0.00
2023-01-12T00:25:30.653Z,0.00
2023-01-12T00:26:30.655Z,0.00
2023-01-12T00:27:30.635Z,0.00
2023-01-12T00:28:30.627Z,0.00
2023-01-12T00:29:30.625Z,0.00
2023-01-12T00:30:30.598Z,0.00
2023-01-12T00:31:30.662Z,0.00
2023-01-12T00:32:30.577Z,0.00
2023-01-12T00:33:30.568Z,0.00
2023-01-12T00:34:30.564Z,0.00
2023-01-12T00:35:30.544Z,0.00
2023-01-12T00:36:30.549Z,0.00
2023-01-12T00:37:30.523Z,0.00
2023-01-12T00:38:30.515Z,0.00
2023-01-12T00:39:30.499Z,0.00
2023-01-12T00:40:30.501Z,0.00
2023-01-12T00:41:30.489Z,0.00
2023-01-12T00:42:30.476Z,0.00
2023-01-12T00:43:30.464Z,0.00
2023-01-12T00:44:30.447Z,0.00
2023-01-12T00:45:30.503Z,0.00
2023-01-12T00:46:30.513Z,0.00
2023-01-12T00:47:30.416Z,0.00
2023-01-12T00:48:30.407Z,0.00
2023-01-12T00:49:30.392Z,0.00
2023-01-12T00:50:30.385Z,0.00
2023-01-12T00:51:30.382Z,0.00
2023-01-12T00:52:31.676Z,0.00
2023-01-12T00:53:30.348Z,0.00
2023-01-12T00:54:30.343Z,0.00
2023-01-12T00:55:30.335Z,0.00
2023-01-12T00:56:30.333Z,0.00
2023-01-12T00:57:30.326Z,0.00
2023-01-12T00:58:30.297Z,0.00
2023-01-12T00:59:30.284Z,0.00
2023-01-12T01:00:30.293Z,0.00
2023-01-12T01:01:30.442Z,0.00
2023-01-12T01:02:30.306Z,0.00
2023-01-12T01:03:30.241Z,0.00
2023-01-12T01:04:30.234Z,0.00
2023-01-12T01:05:30.234Z,0.00
2023-01-12T01:06:30.220Z,0.00
2023-01-12T01:07:30.198Z,0.00
2023-01-12T01:08:30.192Z,0.00
2023-01-12T01:09:30.177Z,0.00
2023-01-12T01:10:30.167Z,0.00
2023-01-12T01:11:30.167Z,0.00
2023-01-12T01:12:30.154Z,0.00
2023-01-12T01:13:30.131Z,0.00
2023-01-12T01:14:30.122Z,0.00
2023-01-12T01:15:30.224Z,0.00
2023-01-12T01:16:30.116Z,0.00
2023-01-12T01:17:30.112Z,0.00
2023-01-12T01:18:30.097Z,0.00
2023-01-12T01:19:30.070Z,0.00
2023-01-12T01:20:30.059Z,0.00
2023-01-12T01:21:30.069Z,0.00
2023-01-12T01:22:30.048Z,0.00
2023-01-12T01:23:30.028Z,0.00
2023-01-12T01:24:30.020Z,0.00
2023-01-12T01:25:30.007Z,0.00
2023-01-12T01:26:30.005Z,0.00
2023-01-12T01:27:29.982Z,0.00
2023-01-12T01:28:29.972Z,0.00
2023-01-12T01:29:29.960Z,0.00
2023-01-12T01:30:29.951Z,0.00
2023-01-12T01:31:29.992Z,0.00
2023-01-12T01:32:29.929Z,0.00
2023-01-12T01:33:29.945Z,0.00
2023-01-12T01:34:29.912Z,0.00
2023-01-12T01:35:29.895Z,0.00
2023-01-12T01:36:29.922Z,0.00
2023-01-12T01:37:29.883Z,0.00
2023-01-12T01:38:29.888Z,0.00
2023-01-12T01:39:29.865Z,0.00
2023-01-12T01:40:29.848Z,0.00
2023-01-12T01:41:29.843Z,0.00
2023-01-12T01:42:29.824Z,0.00
2023-01-12T01:43:29.810Z,0.00
2023-01-12T01:44:29.817Z,0.00
2023-01-12T01:45:29.794Z,0.00
2023-01-12T01:46:29.828Z,0.00
2023-01-12T01:47:29.777Z,0.00
2023-01-12T01:48:29.766Z,0.00
2023-01-12T01:49:29.765Z,0.00
2023-01-12T01:50:29.753Z,0.00
2023-01-12T01:51:29.736Z,0.00
2023-01-12T01:52:29.720Z,0.00
2023-01-12T01:53:29.703Z,0.00
2023-01-12T01:54:29.696Z,0.00
2023-01-12T01:55:29.682Z,0.00
2023-01-12T01:56:29.672Z,0.00
2023-01-12T01:57:29.675Z,0.00
2023-01-12T01:58:29.660Z,0.00
2023-01-12T01:59:29.639Z,0.00
2023-01-12T02:00:29.631Z,0.00
2023-01-12T02:01:29.745Z,0.00
2023-01-12T02:02:29.659Z,0.00
2023-01-12T02:03:32.063Z,0.00
2023-01-12T02:04:29.587Z,0.00
2023-01-12T02:05:29.603Z,0.00
2023-01-12T02:06:29.566Z,0.00
2023-01-12T02:07:29.561Z,0.00
2023-01-12T02:08:29.542Z,0.00
2023-01-12T02:09:29.531Z,0.00
2023-01-12T02:10:29.529Z,0.00
2023-01-12T02:11:29.510Z,0.00
2023-01-12T02:12:29.514Z,0.00
2023-01-12T02:13:29.503Z,0.00
2023-01-12T02:14:29.479Z,0.00
2023-01-12T02:15:29.471Z,0.00
2023-01-12T02:16:29.569Z,0.00
2023-01-12T02:17:29.463Z,0.00
2023-01-12T02:18:29.437Z,0.00
2023-01-12T02:19:29.451Z,0.00
2023-01-12T02:20:29.413Z,0.00
2023-01-12T02:21:29.445Z,0.00
2023-01-12T02:22:29.411Z,0.00
2023-01-12T02:23:29.382Z,0.00
2023-01-12T02:24:29.373Z,0.00
2023-01-12T02:25:29.364Z,0.00
2023-01-12T02:26:29.366Z,0.00
2023-01-12T02:27:29.389Z,0.00
2023-01-12T02:28:29.331Z,0.00
2023-01-12T02:29:29.312Z,0.00
2023-01-12T02:30:29.307Z,0.00
2023-01-12T02:31:29.453Z,0.00
2023-01-12T02:32:29.316Z,0.00
2023-01-12T02:33:29.274Z,0.00
2023-01-12T02:34:29.263Z,0.00
2023-01-12T02:35:29.263Z,0.00
2023-01-12T02:36:29.245Z,0.00
2023-01-12T02:37:29.264Z,0.00
2023-01-12T02:38:29.221Z,0.00
2023-01-12T02:39:29.231Z,0.00
2023-01-12T02:40:29.198Z,0.00
2023-01-12T02:41:29.190Z,0.00
2023-01-12T02:42:29.188Z,0.00
2023-01-12T02:43:29.164Z,0.00
2023-01-12T02:44:29.157Z,0.00
2023-01-12T02:45:29.143Z,0.00
2023-01-12T02:46:29.216Z,0.00
2023-01-12T02:47:29.138Z,0.00
2023-01-12T02:48:29.126Z,0.00
2023-01-12T02:49:29.117Z,0.00
2023-01-12T02:50:29.091Z,0.00
2023-01-12T02:51:29.101Z,0.00
2023-01-12T02:52:29.071Z,0.00
2023-01-12T02:53:29.100Z,0.00
2023-01-12T02:54:29.043Z,0.00
2023-01-12T02:55:29.048Z,0.00
2023-01-12T02:56:29.024Z,0.00
2023-01-12T02:57:29.023Z,0.00
2023-01-12T02:58:29.021Z,0.00
2023-01-12T02:59:29.003Z,0.00
2023-01-12T03:00:29.003Z,0.00
2023-01-12T03:01:28.994Z,0.00
2023-01-12T03:02:28.963Z,0.00
2023-01-12T03:03:28.967Z,0.00
2023-01-12T03:04:28.939Z,0.00
2023-01-12T03:05:28.929Z,0.00
2023-01-12T03:06:28.928Z,0.00
2023-01-12T03:07:28.912Z,0.00
2023-01-12T03:08:28.924Z,0.00
2023-01-12T03:09:28.982Z,0.00
2023-01-12T03:10:28.873Z,0.00
2023-01-12T03:11:28.874Z,0.00
2023-01-12T03:12:28.864Z,0.00
2023-01-12T03:13:28.865Z,0.00
2023-01-12T03:14:28.828Z,0.00
2023-01-12T03:15:28.835Z,0.00
2023-01-12T03:16:28.956Z,0.00
2023-01-12T03:17:28.803Z,0.00
2023-01-12T03:18:28.799Z,0.00
2023-01-12T03:19:28.800Z,0.00
2023-01-12T03:20:28.783Z,0.00
2023-01-12T03:21:28.764Z,0.00
2023-01-12T03:22:28.751Z,0.00
2023-01-12T03:23:28.745Z,0.00
2023-01-12T03:24:28.726Z,0.00
2023-01-12T03:25:28.733Z,0.00
2023-01-12T03:26:28.705Z,0.00
2023-01-12T03:27:28.704Z,0.00
2023-01-12T03:28:28.690Z,0.00
2023-01-12T03:29:28.674Z,0.00
2023-01-12T03:30:28.665Z,0.00
2023-01-12T03:31:28.680Z,0.00
2023-01-12T03:32:28.638Z,0.00
2023-01-12T03:33:28.642Z,0.00
2023-01-12T03:34:28.619Z,0.00
2023-01-12T03:35:28.603Z,0.00
2023-01-12T03:36:28.602Z,0.00
2023-01-12T03:37:28.584Z,0.00
2023-01-12T03:38:28.587Z,0.00
2023-01-12T03:39:28.600Z,0.00
2023-01-12T03:40:28.553Z,0.00
2023-01-12T03:41:28.566Z,0.00
2023-01-12T03:42:28.530Z,0.00
2023-01-12T03:43:28.537Z,0.00
2023-01-12T03:44:28.505Z,0.00
2023-01-12T03:45:28.500Z,0.00
2023-01-12T03:46:28.499Z,0.00
2023-01-12T03:47:28.477Z,0.00
2023-01-12T03:48:28.474Z,0.00
2023-01-12T03:49:28.453Z,0.00
2023-01-12T03:50:28.460Z,0.00
2023-01-12T03:51:28.433Z,0.00
2023-01-12T03:52:28.424Z,0.00
2023-01-12T03:53:28.432Z,0.00
2023-01-12T03:54:28.406Z,0.00
2023-01-12T03:55:28.394Z,0.00
2023-01-12T03:56:28.382Z,0.00
2023-01-12T03:57:28.389Z,0.00
2023-01-12T03:58:28.366Z,0.00
2023-01-12T03:59:28.347Z,0.00
2023-01-12T04:00:28.342Z,0.00
2023-01-12T04:01:28.493Z,0.00
2023-01-12T04:02:28.334Z,0.00
2023-01-12T04:03:28.367Z,0.00
2023-01-12T04:04:28.291Z,0.00
2023-01-12T04:05:28.284Z,0.00
2023-01-12T04:06:28.295Z,0.00
2023-01-12T04:07:28.265Z,0.00
2023-01-12T04:08:28.258Z,0.00
2023-01-12T04:09:28.239Z,0.00
2023-01-12T04:10:28.226Z,0.00
2023-01-12T04:11:28.220Z,0.00
2023-01-12T04:12:28.209Z,0.00
2023-01-12T04:13:28.359Z,0.00
2023-01-12T04:14:28.184Z,0.00
2023-01-12T04:15:28.175Z,0.00
2023-01-12T04:16:28.229Z,0.00
2023-01-12T04:17:28.182Z,0.00
2023-01-12T04:18:28.153Z,0.00
2023-01-12T04:19:28.135Z,0.00
2023-01-12T04:20:28.118Z,0.00
2023-01-12T04:21:28.108Z,0.00
2023-01-12T04:22:28.095Z,0.00
2023-01-12T04:23:28.097Z,0.00
2023-01-12T04:24:28.072Z,0.00
2023-01-12T04:25:28.065Z,0.00
2023-01-12T04:26:28.077Z,0.00
2023-01-12T04:27:28.043Z,0.00
2023-01-12T04:28:28.050Z,0.00
2023-01-12T04:29:28.058Z,0.00
2023-01-12T04:30:28.024Z,0.00
2023-01-12T04:31:28.050Z,0.00
2023-01-12T04:32:28.002Z,0.00
2023-01-12T04:33:27.989Z,0.00
2023-01-12T04:34:27.994Z,0.00
2023-01-12T04:35:27.958Z,0.00
2023-01-12T04:36:27.956Z,0.00
2023-01-12T04:37:27.938Z,0.00
2023-01-12T04:38:27.937Z,0.00
2023-01-12T04:39:27.917Z,0.00
2023-01-12T04:40:27.907Z,0.00
2023-01-12T04:41:27.892Z,0.00
2023-01-12T04:42:27.884Z,0.00
2023-01-12T04:43:27.880Z,0.00
2023-01-12T04:44:27.864Z,0.00
2023-01-12T04:45:27.957Z,0.00
2023-01-12T04:46:27.835Z,0.00
2023-01-12T04:47:27.826Z,0.00
2023-01-12T04:48:27.824Z,0.00
2023-01-12T04:49:27.849Z,0.00
2023-01-12T04:50:27.794Z,0.00
2023-01-12T04:51:27.781Z,0.00
2023-01-12T04:52:27.778Z,0.00
2023-01-12T04:53:27.809Z,0.00
2023-01-12T04:54:27.766Z,0.00
2023-01-12T04:55:27.747Z,0.00
2023-01-12T04:56:27.750Z,0.00
2023-01-12T04:57:27.720Z,0.00
2023-01-12T04:58:27.724Z,0.00
2023-01-12T04:59:27.719Z,0.00
2023-01-12T05:00:27.704Z,0.00
2023-01-12T05:01:27.810Z,0.00
2023-01-12T05:02:27.681Z,0.00
2023-01-12T05:03:27.661Z,0.00
2023-01-12T05:04:27.674Z,0.00
2023-01-12T05:05:27.634Z,0.00
2023-01-12T05:06:27.624Z,0.00
2023-01-12T05:07:27.606Z,0.00
2023-01-12T05:08:27.620Z,0.00
2023-01-12T05:09:27.587Z,0.00
2023-01-12T05:10:27.580Z,0.00
2023-01-12T05:11:27.566Z,0.00
2023-01-12T05:12:27.554Z,0.00
2023-01-12T05:13:27.555Z,0.00
2023-01-12T05:14:27.529Z,0.00
2023-01-12T05:15:27.541Z,0.00
2023-01-12T05:16:27.576Z,0.00
2023-01-12T05:17:27.517Z,0.00
2023-01-12T05:18:27.503Z,0.00
2023-01-12T05:19:27.479Z,0.00
2023-01-12T05:20:27.461Z,0.00
2023-01-12T05:21:27.457Z,0.00
2023-01-12T05:22:27.438Z,0.00
2023-01-12T05:23:27.447Z,0.00
2023-01-12T05:24:27.417Z,0.00
2023-01-12T05:25:27.405Z,0.00
2023-01-12T05:26:27.393Z,0.00
2023-01-12T05:27:27.389Z,0.00
2023-01-12T05:28:27.381Z,0.00
2023-01-12T05:29:27.362Z,0.00
2023-01-12T05:30:27.902Z,0.00
2023-01-12T05:31:27.341Z,0.00
2023-01-12T05:32:27.328Z,0.00
2023-01-12T05:33:27.350Z,0.00
2023-01-12T05:34:27.307Z,0.00
2023-01-12T05:35:27.322Z,0.00
2023-01-12T05:36:27.292Z,0.00
2023-01-12T05:37:27.276Z,0.00
2023-01-12T05:38:27.278Z,0.00
2023-01-12T05:39:27.254Z,0.00
2023-01-12T05:40:27.270Z,0.00
2023-01-12T05:41:27.232Z,0.00
2023-01-12T05:42:27.220Z,0.00
2023-01-12T05:43:27.228Z,0.00
2023-01-12T05:44:27.198Z,0.00
2023-01-12T05:45:27.191Z,0.00
2023-01-12T05:46:27.332Z,0.00
2023-01-12T05:47:27.193Z,0.00
2023-01-12T05:48:27.168Z,0.00
2023-01-12T05:49:27.167Z,0.00
2023-01-12T05:50:27.129Z,0.00
2023-01-12T05:51:27.121Z,0.00
2023-01-12T05:52:27.110Z,0.00
2023-01-12T05:53:27.107Z,0.00
2023-01-12T05:54:27.086Z,0.00
2023-01-12T05:55:27.087Z,0.00
2023-01-12T05:56:27.100Z,0.00
2023-01-12T05:57:27.056Z,0.00
2023-01-12T05:58:27.061Z,0.00
2023-01-12T05:59:27.033Z,0.00
2023-01-12T06:00:27.036Z,0.00
2023-01-12T06:01:27.098Z,0.00
2023-01-12T06:02:27.040Z,0.00
2023-01-12T06:03:28.003Z,0.00
2023-01-12T06:04:27.074Z,0.00
2023-01-12T06:05:26.982Z,0.00
2023-01-12T06:06:26.963Z,0.00
2023-01-12T06:07:26.946Z,0.00
2023-01-12T06:08:26.935Z,0.00
2023-01-12T06:09:26.933Z,0.00
2023-01-12T06:10:26.911Z,0.00
2023-01-12T06:11:26.913Z,0.00
2023-01-12T06:12:26.907Z,0.00
2023-01-12T06:13:26.878Z,0.00
2023-01-12T06:14:26.881Z,0.00
2023-01-12T06:15:26.863Z,0.00
2023-01-12T06:16:26.881Z,0.00
2023-01-12T06:17:26.844Z,0.00
2023-01-12T06:18:26.827Z,0.00
2023-01-12T06:19:26.826Z,0.00
2023-01-12T06:20:26.804Z,0.00
2023-01-12T06:21:26.824Z,0.00
2023-01-12T06:22:26.780Z,0.00
2023-01-12T06:23:35.544Z,0.00
2023-01-12T06:24:27.769Z,0.00
2023-01-12T06:25:26.767Z,0.00
2023-01-12T06:26:26.738Z,0.00
2023-01-12T06:27:26.753Z,0.00
2023-01-12T06:28:26.715Z,0.00
2023-01-12T06:29:26.714Z,0.00
2023-01-12T06:30:26.705Z,0.00
2023-01-12T06:31:26.722Z,0.00
2023-01-12T06:32:26.667Z,0.00
2023-01-12T06:33:26.675Z,0.00
2023-01-12T06:34:26.655Z,0.00
2023-01-12T06:35:26.646Z,0.00
2023-01-12T06:36:26.638Z,0.00
2023-01-12T06:37:26.636Z,0.00
2023-01-12T06:38:26.607Z,0.00
2023-01-12T06:39:26.608Z,0.00
2023-01-12T06:40:26.592Z,0.00
2023-01-12T06:41:26.577Z,0.00
2023-01-12T06:42:26.564Z,0.00
2023-01-12T06:43:26.557Z,0.00
2023-01-12T06:44:26.566Z,0.00
2023-01-12T06:45:26.546Z,0.00
2023-01-12T06:46:26.567Z,0.00
2023-01-12T06:47:26.509Z,0.00
2023-01-12T06:48:26.497Z,0.00
2023-01-12T06:49:27.496Z,0.00
2023-01-12T06:50:26.474Z,0.00
2023-01-12T06:51:26.461Z,0.00
2023-01-12T06:52:26.449Z,0.00
2023-01-12T06:53:26.461Z,0.00
2023-01-12T06:54:26.435Z,0.00
2023-01-12T06:55:26.418Z,0.00
2023-01-12T06:56:26.407Z,0.00
2023-01-12T06:57:26.401Z,0.00
2023-01-12T06:58:26.381Z,0.00
2023-01-12T06:59:26.385Z,0.00
2023-01-12T07:00:26.364Z,0.00
2023-01-12T07:01:26.511Z,0.00
2023-01-12T07:02:26.346Z,0.00
2023-01-12T07:03:26.338Z,0.00
2023-01-12T07:04:26.416Z,0.00
2023-01-12T07:05:26.317Z,0.00
2023-01-12T07:06:26.298Z,0.00
2023-01-12T07:07:26.296Z,0.00
2023-01-12T07:08:26.275Z,0.00
2023-01-12T07:09:26.646Z,5.62
2023-01-12T07:10:26.253Z,5.62
2023-01-12T07:11:26.271Z,5.62
2023-01-12T07:12:26.239Z,5.62
2023-01-12T07:13:26.218Z,5.62
2023-01-12T07:14:26.247Z,5.62
2023-01-12T07:15:26.198Z,5.62
2023-01-12T07:16:26.187Z,5.62
2023-01-12T07:17:26.179Z,5.62
2023-01-12T07:18:26.169Z,5.62
2023-01-12T07:19:26.162Z,5.62
2023-01-12T07:20:26.173Z,5.62
2023-01-12T07:21:26.140Z,5.62
2023-01-12T07:22:26.158Z,5.62
2023-01-12T07:23:26.115Z,5.62
2023-01-12T07:24:26.113Z,5.62
2023-01-12T07:25:26.117Z,11.25
2023-01-12T07:26:26.115Z,22.50
2023-01-12T07:27:26.068Z,22.50
2023-01-12T07:28:26.063Z,11.25
2023-01-12T07:29:26.081Z,11.25
2023-01-12T07:30:26.031Z,11.25
2023-01-12T07:31:26.107Z,11.25
2023-01-12T07:32:26.023Z,11.25
2023-01-12T07:33:26.006Z,16.88
2023-01-12T07:34:26.012Z,16.88
2023-01-12T07:35:25.984Z,16.88
2023-01-12T07:36:26.005Z,22.50
2023-01-12T07:37:25.956Z,22.50
2023-01-12T07:38:25.951Z,22.50
2023-01-12T07:39:25.943Z,22.50
2023-01-12T07:40:25.928Z,22.50
2023-01-12T07:41:25.927Z,28.12
2023-01-12T07:42:25.902Z,28.12
2023-01-12T07:43:25.900Z,28.12
2023-01-12T07:44:25.909Z,33.75
2023-01-12T07:45:25.888Z,33.75
2023-01-12T07:46:25.921Z,39.38
2023-01-12T07:47:25.848Z,39.38
2023-01-12T07:48:25.838Z,39.38
2023-01-12T07:49:25.831Z,33.75
2023-01-12T07:50:25.820Z,33.75
2023-01-12T07:51:25.832Z,33.75
2023-01-12T07:52:25.812Z,28.12
2023-01-12T07:53:25.780Z,28.12
2023-01-12T07:54:25.787Z,28.12
2023-01-12T07:55:25.799Z,22.50
2023-01-12T07:56:25.745Z,22.50
2023-01-12T07:57:25.822Z,22.50
2023-01-12T07:58:25.727Z,22.50
2023-01-12T07:59:25.726Z,22.50
2023-01-12T08:00:25.706Z,22.50
2023-01-12T08:01:25.952Z,22.50
2023-01-12T08:02:25.739Z,22.50
2023-01-12T08:03:25.682Z,28.12
2023-01-12T08:04:25.671Z,28.12
2023-01-12T08:05:25.734Z,28.12
2023-01-12T08:06:25.639Z,28.12
2023-01-12T08:07:25.626Z,33.75
2023-01-12T08:08:25.616Z,33.75
2023-01-12T08:09:25.626Z,33.75
2023-01-12T08:10:25.596Z,33.75
2023-01-12T08:11:25.587Z,39.38
2023-01-12T08:12:25.584Z,39.38
2023-01-12T08:13:25.597Z,45.00
2023-01-12T08:14:25.568Z,45.00
2023-01-12T08:15:25.542Z,39.38
2023-01-12T08:16:25.574Z,39.38
2023-01-12T08:17:25.518Z,33.75
2023-01-12T08:18:25.546Z,33.75
2023-01-12T08:19:25.507Z,28.12
2023-01-12T08:20:25.494Z,28.12
2023-01-12T08:21:25.485Z,28.12
2023-01-12T08:22:25.466Z,28.12
2023-01-12T08:23:25.458Z,28.12
2023-01-12T08:24:25.457Z,28.12
2023-01-12T08:25:25.437Z,28.12
2023-01-12T08:26:25.428Z,28.12
2023-01-12T08:27:25.408Z,33.75
2023-01-12T08:28:25.412Z,33.75
2023-01-12T08:29:25.415Z,33.75
2023-01-12T08:30:25.379Z,33.75
2023-01-12T08:31:25.440Z,33.75
2023-01-12T08:32:25.357Z,39.38
2023-01-12T08:33:25.350Z,33.75
2023-01-12T08:34:25.345Z,33.75
2023-01-12T08:35:25.331Z,39.38
2023-01-12T08:36:25.320Z,39.38
2023-01-12T08:37:25.339Z,33.75
2023-01-12T08:38:25.292Z,33.75
2023-01-12T08:39:25.305Z,33.75
2023-01-12T08:40:25.281Z,33.75
2023-01-12T08:41:25.258Z,33.75
2023-01-12T08:42:26.498Z,33.75
2023-01-12T08:43:25.267Z,39.38
2023-01-12T08:44:25.268Z,39.38
2023-01-12T08:45:25.368Z,45.00
2023-01-12T08:46:25.306Z,45.00
2023-01-12T08:47:25.193Z,50.62
2023-01-12T08:48:25.202Z,56.25
2023-01-12T08:49:25.201Z,61.88
2023-01-12T08:50:25.214Z,67.50
2023-01-12T08:51:25.150Z,73.12
2023-01-12T08:52:25.140Z,73.12
2023-01-12T08:53:25.131Z,78.75
2023-01-12T08:54:25.131Z,78.75
2023-01-12T08:55:25.108Z,84.38
2023-01-12T08:56:25.099Z,84.38
2023-01-12T08:57:25.083Z,84.38
2023-01-12T08:58:25.077Z,78.75
2023-01-12T08:59:25.075Z,78.75
2023-01-12T09:00:25.052Z,78.75
2023-01-12T09:01:25.137Z,78.75
2023-01-12T09:02:25.089Z,73.12
2023-01-12T09:03:25.026Z,67.50
2023-01-12T09:04:25.042Z,56.25
2023-01-12T09:05:25.000Z,56.25
2023-01-12T09:06:25.013Z,56.25
2023-01-12T09:07:24.981Z,61.88
2023-01-12T09:08:24.971Z,67.50
2023-01-12T09:09:24.966Z,73.12
2023-01-12T09:10:24.951Z,73.12
2023-01-12T09:11:24.933Z,67.50
2023-01-12T09:12:24.924Z,61.88
2023-01-12T09:13:24.914Z,56.25
2023-01-12T09:14:24.936Z,56.25
2023-01-12T09:15:24.897Z,50.62
2023-01-12T09:16:24.925Z,50.62
2023-01-12T09:17:24.891Z,50.62
2023-01-12T09:18:24.865Z,50.62
2023-01-12T09:19:24.850Z,45.00
2023-01-12T09:20:24.845Z,45.00
2023-01-12T09:21:24.826Z,45.00
2023-01-12T09:22:24.813Z,50.62
2023-01-12T09:23:24.810Z,50.62
2023-01-12T09:24:24.792Z,45.00
2023-01-12T09:25:24.792Z,45.00
2023-01-12T09:26:24.771Z,45.00
2023-01-12T09:27:24.759Z,39.38
2023-01-12T09:28:24.749Z,33.75
2023-01-12T09:29:24.738Z,39.38
2023-01-12T09:30:24.746Z,45.00
2023-01-12T09:31:24.767Z,56.25
2023-01-12T09:32:29.129Z,67.50
2023-01-12T09:33:25.712Z,78.75
2023-01-12T09:34:24.733Z,90.00
2023-01-12T09:35:24.687Z,95.62
2023-01-12T09:36:24.666Z,90.00
2023-01-12T09:37:24.649Z,90.00
2023-01-12T09:38:24.643Z,95.62
2023-01-12T09:39:28.596Z,123.75
2023-01-12T09:40:24.664Z,157.50
2023-01-12T09:41:27.142Z,348.75
2023-01-12T09:42:24.598Z,506.25
2023-01-12T09:43:24.585Z,596.25
2023-01-12T09:44:24.579Z,326.25
2023-01-12T09:45:24.575Z,168.75
2023-01-12T09:46:24.553Z,129.38
2023-01-12T09:47:24.558Z,106.88
2023-01-12T09:48:24.532Z,95.62
2023-01-12T09:49:24.556Z,95.62
2023-01-12T09:50:24.521Z,112.50
2023-01-12T09:51:24.497Z,90.00
2023-01-12T09:52:24.496Z,101.25
2023-01-12T09:53:24.480Z,112.50
2023-01-12T09:54:24.481Z,135.00
2023-01-12T09:55:24.469Z,174.38
2023-01-12T09:56:24.450Z,196.88
2023-01-12T09:57:28.991Z,219.38
2023-01-12T09:58:24.428Z,253.12
2023-01-12T09:59:24.409Z,213.75
2023-01-12T10:00:24.409Z,151.88
2023-01-12T10:01:29.744Z,129.38
2023-01-12T10:02:25.449Z,123.75
2023-01-12T10:03:24.466Z,123.75
2023-01-12T10:04:24.354Z,112.50
2023-01-12T10:05:31.475Z,118.12
2023-01-12T10:06:25.343Z,123.75
2023-01-12T10:07:24.324Z,118.12
2023-01-12T10:08:24.316Z,118.12
2023-01-12T10:09:24.303Z,118.12
2023-01-12T10:10:24.300Z,112.50
2023-01-12T10:11:24.282Z,118.12
2023-01-12T10:12:24.270Z,135.00
2023-01-12T10:13:24.254Z,140.62
2023-01-12T10:14:24.244Z,163.12
2023-01-12T10:15:24.244Z,208.12
2023-01-12T10:16:24.266Z,241.88
2023-01-12T10:17:24.213Z,281.25
2023-01-12T10:18:24.200Z,230.62
2023-01-12T10:19:24.190Z,213.75
2023-01-12T10:20:24.227Z,185.62
2023-01-12T10:21:24.196Z,129.38
2023-01-12T10:22:24.156Z,106.88
2023-01-12T10:23:24.146Z,90.00
2023-01-12T10:24:24.142Z,84.38
2023-01-12T10:25:24.188Z,78.75
2023-01-12T10:26:24.111Z,84.38
2023-01-12T10:27:24.099Z,84.38
2023-01-12T10:28:24.102Z,84.38
2023-01-12T10:29:24.078Z,90.00
2023-01-12T10:30:24.096Z,101.25
2023-01-12T10:31:24.114Z,106.88
2023-01-12T10:32:24.688Z,101.25
2023-01-12T10:33:24.044Z,101.25
2023-01-12T10:34:24.034Z,90.00
2023-01-12T10:35:24.025Z,78.75
2023-01-12T10:36:24.004Z,84.38
2023-01-12T10:37:24.048Z,73.12
2023-01-12T10:38:23.979Z,78.75
2023-01-12T10:39:23.967Z,73.12
2023-01-12T10:40:23.987Z,61.88
2023-01-12T10:41:23.946Z,50.62
2023-01-12T10:42:23.937Z,56.25
2023-01-12T10:43:24.042Z,61.88
2023-01-12T10:44:23.916Z,61.88
2023-01-12T10:45:23.920Z,56.25
2023-01-12T10:46:23.893Z,45.00
2023-01-12T10:47:23.879Z,39.38
2023-01-12T10:48:23.871Z,39.38
2023-01-12T10:49:23.856Z,39.38
2023-01-12T10:50:23.862Z,33.75
2023-01-12T10:51:23.835Z,33.75
2023-01-12T10:52:23.825Z,39.38
2023-01-12T10:53:23.831Z,39.38
2023-01-12T10:54:23.807Z,45.00
2023-01-12T10:55:23.802Z,50.62
2023-01-12T10:56:23.790Z,39.38
2023-01-12T10:57:23.784Z,39.38
2023-01-12T10:58:23.760Z,50.62
2023-01-12T10:59:23.749Z,61.88
2023-01-12T11:00:26.038Z,67.50
2023-01-12T11:01:23.872Z,61.88
2023-01-12T11:02:23.819Z,67.50
2023-01-12T11:03:23.701Z,67.50
2023-01-12T11:04:23.702Z,73.12
2023-01-12T11:05:23.695Z,78.75
2023-01-12T11:06:23.697Z,78.75
2023-01-12T11:07:23.659Z,78.75
2023-01-12T11:08:23.651Z,73.12
2023-01-12T11:09:23.661Z,61.88
2023-01-12T11:10:23.636Z,61.88
2023-01-12T11:11:23.621Z,56.25
2023-01-12T11:12:23.672Z,56.25
2023-01-12T11:13:23.592Z,50.62
2023-01-12T11:14:24.396Z,50.62
2023-01-12T11:15:23.593Z,45.00
2023-01-12T11:16:23.763Z,39.38
2023-01-12T11:17:23.552Z,39.38
2023-01-12T11:18:23.565Z,33.75
2023-01-12T11:19:23.529Z,33.75
2023-01-12T11:20:23.540Z,33.75
2023-01-12T11:21:23.506Z,33.75
2023-01-12T11:22:23.497Z,39.38
2023-01-12T11:23:23.485Z,45.00
2023-01-12T11:24:23.500Z,45.00
2023-01-12T11:25:23.489Z,45.00
2023-01-12T11:26:23.457Z,45.00
2023-01-12T11:27:23.439Z,45.00
2023-01-12T11:28:23.446Z,45.00
2023-01-12T11:29:23.465Z,45.00
2023-01-12T11:30:23.435Z,45.00
2023-01-12T11:31:23.433Z,39.38
2023-01-12T11:32:23.387Z,39.38
2023-01-12T11:33:23.377Z,39.38
2023-01-12T11:34:23.380Z,39.38
2023-01-12T11:35:23.371Z,33.75
2023-01-12T11:36:23.338Z,45.00
2023-01-12T11:37:23.338Z,45.00
2023-01-12T11:38:23.325Z,45.00
2023-01-12T11:39:23.319Z,39.38
2023-01-12T11:40:23.345Z,39.38
2023-01-12T11:41:23.307Z,33.75
2023-01-12T11:42:23.278Z,33.75
2023-01-12T11:43:23.261Z,33.75
2023-01-12T11:44:23.255Z,33.75
2023-01-12T11:45:23.287Z,33.75
2023-01-12T11:46:23.311Z,39.38
2023-01-12T11:47:23.220Z,45.00
2023-01-12T11:48:23.207Z,56.25
2023-01-12T11:49:23.199Z,56.25
2023-01-12T11:50:23.197Z,61.88
2023-01-12T11:51:23.300Z,67.50
2023-01-12T11:52:23.165Z,73.12
2023-01-12T11:53:23.163Z,73.12
2023-01-12T11:54:23.145Z,73.12
2023-01-12T11:55:23.143Z,73.12
2023-01-12T11:56:23.121Z,67.50
2023-01-12T11:57:23.130Z,61.88
2023-01-12T11:58:23.105Z,61.88
2023-01-12T11:59:23.092Z,50.62
2023-01-12T12:00:23.088Z,50.62
2023-01-12T12:01:23.132Z,45.00
2023-01-12T12:02:23.074Z,45.00
2023-01-12T12:03:23.091Z,45.00
2023-01-12T12:04:23.035Z,45.00
2023-01-12T12:05:23.046Z,56.25
2023-01-12T12:06:23.008Z,50.62
2023-01-12T12:07:23.001Z,56.25
2023-01-12T12:08:22.989Z,56.25
2023-01-12T12:09:22.977Z,61.88
2023-01-12T12:10:22.977Z,61.88
2023-01-12T12:11:22.975Z,67.50
2023-01-12T12:12:22.947Z,78.75
2023-01-12T12:13:22.957Z,67.50
2023-01-12T12:14:22.920Z,61.88
2023-01-12T12:15:22.917Z,56.25
2023-01-12T12:16:22.913Z,50.62
2023-01-12T12:17:22.888Z,45.00
2023-01-12T12:18:22.884Z,45.00
2023-01-12T12:19:22.869Z,50.62
2023-01-12T12:20:22.868Z,56.25
2023-01-12T12:21:22.845Z,50.62
2023-01-12T12:22:22.831Z,50.62
2023-01-12T12:23:22.852Z,45.00
2023-01-12T12:24:22.815Z,39.38
2023-01-12T12:25:22.815Z,33.75
2023-01-12T12:26:22.792Z,33.75
2023-01-12T12:27:22.780Z,33.75
2023-01-12T12:28:22.770Z,33.75
2023-01-12T12:29:22.812Z,28.12
2023-01-12T12:30:22.760Z,28.12
2023-01-12T12:31:22.808Z,28.12
2023-01-12T12:32:22.731Z,28.12
2023-01-12T12:33:22.715Z,33.75
2023-01-12T12:34:22.701Z,39.38
2023-01-12T12:35:22.708Z,39.38
2023-01-12T12:36:22.678Z,50.62
2023-01-12T12:37:22.681Z,45.00
2023-01-12T12:38:22.656Z,39.38
2023-01-12T12:39:22.646Z,39.38
2023-01-12T12:40:22.640Z,39.38
2023-01-12T12:41:22.624Z,39.38
2023-01-12T12:42:22.620Z,39.38
2023-01-12T12:43:22.617Z,33.75
2023-01-12T12:44:22.593Z,39.38
2023-01-12T12:45:22.615Z,39.38
2023-01-12T12:46:22.598Z,39.38
2023-01-12T12:47:22.567Z,39.38
2023-01-12T12:48:22.574Z,39.38
2023-01-12T12:49:22.553Z,39.38
2023-01-12T12:50:22.551Z,33.75
2023-01-12T12:51:22.525Z,33.75
2023-01-12T12:52:22.503Z,28.12
2023-01-12T12:53:22.495Z,28.12
2023-01-12T12:54:22.482Z,28.12
2023-01-12T12:55:22.489Z,28.12
2023-01-12T12:56:22.507Z,28.12
2023-01-12T12:57:22.454Z,28.12
2023-01-12T12:58:22.453Z,33.75
2023-01-12T12:59:22.427Z,33.75
2023-01-12T13:00:22.435Z,33.75
2023-01-12T13:01:22.618Z,33.75
2023-01-12T13:02:22.500Z,33.75
2023-01-12T13:03:22.379Z,33.75
2023-01-12T13:04:22.373Z,33.75
2023-01-12T13:05:22.375Z,33.75